Time;durP1;ratioP1;P1;durP2;ratioP2;P2;SDS_P1;SDS_P2;PMS_P1;PMS_P2;Temp;Humidity;BMP_temperature;BMP_pressure;BME280_temperature;BME280_humidity;BME280_pressure;Samples;Min_cycle;Max_cycle;Signal;HPM_P1;HPM_P2
2024/01/17 02:42:30;;;;;;;6.50;3.10;;;;;;;-7.09;61.15;98528.75;102714;1291;600078;-27
2024/01/17 02:44:58;;;;;;;13.20;5.80;;;;;;;-6.98;61.84;98531.92;105024;1269;61222;-28
2024/01/17 02:47:26;;;;;;;9.40;4.90;;;;;;;-6.97;61.73;98534.61;105169;1267;61052;-28
2024/01/17 02:49:58;;;;;;;9.90;4.00;;;;;;;-7.07;61.33;98539.35;104907;1270;71024;-27
2024/01/17 02:52:25;;;;;;;6.50;3.80;;;;;;;-7.28;61.82;98543.76;104900;1269;73112;-27
2024/01/17 02:54:53;;;;;;;6.50;3.40;;;;;;;-6.79;62.41;98540.16;104801;1272;72685;-27
2024/01/17 02:57:20;;;;;;;13.10;4.90;;;;;;;-6.09;60.21;98540.45;104833;1269;191913;-28
2024/01/17 03:07:26;;;;;;;7.00;4.00;;;;;;;-6.95;60.19;98544.20;102751;1293;600281;-27
2024/01/17 03:09:53;;;;;;;7.20;3.40;;;;;;;-7.33;61.09;98545.70;104863;1272;61193;-28
2024/01/17 03:12:21;;;;;;;5.10;2.30;;;;;;;-7.69;61.34;98548.64;104826;1263;61099;-28
2024/01/17 03:14:48;;;;;;;3.30;1.90;;;;;;;-7.73;61.95;98555.43;104855;1263;71147;-28
2024/01/17 03:23:51;;;;;;;3.00;1.80;;;;;;;-6.89;60.87;98557.91;102691;1293;599387;-28
2024/01/17 03:26:19;;;;;;;6.60;2.90;;;;;;;-7.29;61.45;98563.00;104902;1269;61259;-28
2024/01/17 03:28:46;;;;;;;8.90;4.40;;;;;;;-7.61;62.30;98566.89;104792;1272;61187;-28
2024/01/17 03:38:11;;;;;;;10.50;5.10;;;;;;;-7.01;62.48;98581.27;102673;1292;600240;-28
2024/01/17 03:40:39;;;;;;;7.70;3.60;;;;;;;-6.95;61.47;98584.36;104851;1264;61117;-28
2024/01/17 03:43:06;;;;;;;4.90;3.30;;;;;;;-7.20;61.25;98585.80;104863;1269;61181;-29
2024/01/17 03:45:34;;;;;;;7.70;4.10;;;;;;;-7.51;61.55;98586.12;104816;1264;71936;-28
2024/01/17 03:48:02;;;;;;;7.10;3.80;;;;;;;-7.85;61.76;98588.30;104918;1270;74489;-28
2024/01/17 03:50:31;;;;;;;8.10;3.60;;;;;;;-8.22;62.70;98586.77;104911;1265;71675;-28
2024/01/17 03:52:59;;;;;;;4.70;2.50;;;;;;;-8.19;63.30;98588.23;105474;1259;185603;-28
2024/01/17 03:55:27;;;;;;;1.80;1.40;;;;;;;-7.37;62.98;98590.30;105473;1256;61142;-28
2024/01/17 03:57:54;;;;;;;3.70;2.00;;;;;;;-7.01;61.03;98586.14;105596;1254;70999;-28
2024/01/17 04:00:22;;;;;;;4.40;2.50;;;;;;;-7.21;61.17;98592.06;105695;1254;74277;-28
2024/01/17 04:02:49;;;;;;;4.80;2.20;;;;;;;-7.71;61.09;98591.31;105643;1254;71391;-28
2024/01/17 04:05:19;;;;;;;7.90;3.80;;;;;;;-8.12;62.25;98589.01;105620;1256;61097;-27
2024/01/17 04:07:46;;;;;;;6.20;3.30;;;;;;;-8.51;62.71;98589.84;105636;1259;61147;-28
2024/01/17 04:17:55;;;;;;;5.80;3.60;;;;;;;-7.54;59.80;98606.92;102687;1294;599319;-28
2024/01/17 04:20:22;;;;;;;6.60;4.50;;;;;;;-8.06;58.47;98606.11;104850;1269;61168;-28
2024/01/17 04:22:50;;;;;;;8.90;4.10;;;;;;;-8.62;59.53;98604.27;104826;1266;61182;-28
2024/01/17 04:25:18;;;;;;;6.50;3.50;;;;;;;-9.03;60.99;98606.52;104822;1267;70037;-28
2024/01/17 04:27:45;;;;;;;5.40;2.10;;;;;;;-9.16;61.92;98614.05;104810;1270;73134;-28
2024/01/17 04:30:14;;;;;;;8.30;3.70;;;;;;;-8.47;61.99;98619.08;104735;1267;72670;-27
2024/01/17 04:32:41;;;;;;;6.90;4.40;;;;;;;-8.20;60.90;98624.65;104937;1269;162821;-28
2024/01/17 04:35:11;;;;;;;10.60;4.60;;;;;;;-8.30;61.35;98625.60;105047;1269;61174;-28
2024/01/17 04:37:39;;;;;;;7.10;4.70;;;;;;;-8.70;60.83;98625.90;105048;1268;72248;-28
2024/01/17 04:40:08;;;;;;;6.90;3.30;;;;;;;-9.03;61.20;98629.75;105717;1254;74351;-28
2024/01/17 04:42:36;;;;;;;4.10;1.90;;;;;;;-9.41;62.47;98632.06;105672;1255;72671;-27
2024/01/17 04:45:04;;;;;;;3.80;2.20;;;;;;;-9.19;63.64;98627.52;105663;1258;61621;-27
2024/01/17 04:55:15;;;;;;;5.10;3.10;;;;;;;-8.55;63.54;98632.98;102767;1289;599673;-28
2024/01/17 04:57:42;;;;;;;7.10;3.10;;;;;;;-8.90;64.08;98640.73;105818;1254;61155;-27
2024/01/17 05:00:12;;;;;;;4.80;2.40;;;;;;;-9.20;64.94;98642.00;105724;1253;61053;-29
2024/01/17 05:10:20;;;;;;;3.60;2.70;;;;;;;-8.19;60.98;98648.05;102732;1292;599479;-28
2024/01/17 05:12:47;;;;;;;5.10;3.30;;;;;;;-8.60;61.14;98641.95;105075;1269;61231;-28
2024/01/17 05:15:15;;;;;;;4.10;2.70;;;;;;;-9.01;61.28;98643.19;105038;1266;61063;-27
2024/01/17 05:17:42;;;;;;;2.40;1.60;;;;;;;-9.35;61.75;98646.83;104845;1263;72231;-27
2024/01/17 05:27:51;;;;;;;6.50;4.00;;;;;;;-9.07;59.34;98656.69;102748;1290;600130;-27
2024/01/17 05:30:20;;;;;;;11.00;5.70;;;;;;;-9.58;61.24;98664.45;105117;1267;61056;-28
2024/01/17 05:32:48;;;;;;;6.60;2.00;;;;;;;-9.89;61.91;98664.27;104856;1264;61132;-27
2024/01/17 05:35:16;;;;;;;8.50;2.90;;;;;;;-9.49;61.79;98665.23;104844;1270;72205;-26
2024/01/17 05:37:45;;;;;;;8.60;4.50;;;;;;;-8.77;59.74;98669.41;104743;1271;73213;-27
2024/01/17 05:40:12;;;;;;;8.90;4.70;;;;;;;-8.63;59.24;98667.26;104865;1267;71194;-26
2024/01/17 05:42:42;;;;;;;2.80;1.30;;;;;;;-8.88;59.21;98669.66;105067;1267;61260;-27
2024/01/17 05:45:09;;;;;;;6.80;3.80;;;;;;;-9.44;58.70;98670.41;104835;1263;61656;-26
2024/01/17 05:47:38;;;;;;;6.10;3.90;;;;;;;-9.92;59.27;98672.35;104894;1267;71027;-26
2024/01/17 05:50:09;;;;;;;5.10;2.30;;;;;;;-9.88;59.84;98667.80;105168;1267;73189;-27
2024/01/17 06:00:24;;;;;;;21.90;4.70;;;;;;;-10.03;59.20;98676.27;102690;1292;600167;-28
2024/01/17 06:02:51;;;;;;;8.80;3.50;;;;;;;-10.57;60.21;98676.14;104838;1267;61069;-28
2024/01/17 06:05:19;;;;;;;11.00;3.50;;;;;;;-10.54;60.69;98682.16;104874;1267;61139;-27
2024/01/17 06:07:47;;;;;;;21.50;7.90;;;;;;;-9.77;59.57;98691.45;104782;1271;72226;-28
2024/01/17 06:10:15;;;;;;;21.80;10.70;;;;;;;-9.56;58.88;98693.02;104823;1266;74773;-28
2024/01/17 06:12:43;;;;;;;13.20;6.90;;;;;;;-9.80;58.94;98689.27;104830;1266;71684;-28
2024/01/17 06:15:11;;;;;;;4.40;3.20;;;;;;;-10.21;59.19;98687.59;104954;1263;152446;-29
2024/01/17 06:17:39;;;;;;;5.80;3.80;;;;;;;-10.66;59.99;98682.86;105146;1262;61074;-27
2024/01/17 06:20:09;;;;;;;8.60;4.20;;;;;;;-10.49;61.03;98687.17;105147;1264;71008;-27
2024/01/17 06:22:38;;;;;;;3.00;2.60;;;;;;;-9.62;59.88;98695.23;105124;1268;74554;-28
2024/01/17 06:25:06;;;;;;;6.20;3.00;;;;;;;-9.43;59.04;98699.49;105111;1268;71111;-28
2024/01/17 06:27:34;;;;;;;8.30;4.60;;;;;;;-9.69;59.03;98696.11;104825;1272;61326;-28
2024/01/17 06:30:02;;;;;;;10.60;6.70;;;;;;;-9.91;59.56;98696.55;105035;1266;61144;-28
2024/01/17 06:32:30;;;;;;;16.20;5.60;;;;;;;-10.11;60.05;98693.27;104825;1266;73452;-28
2024/01/17 06:34:58;;;;;;;14.30;5.90;;;;;;;-9.95;60.32;98688.33;105320;1264;74327;-28
2024/01/17 06:37:26;;;;;;;17.10;7.90;;;;;;;-9.17;59.49;98686.20;105281;1258;71432;-28
2024/01/17 06:39:53;;;;;;;22.90;10.70;;;;;;;-9.01;57.07;98684.91;105504;1262;61199;-28
2024/01/17 06:42:21;;;;;;;25.30;10.50;;;;;;;-9.21;56.29;98685.56;105585;1257;61176;-28
2024/01/17 06:44:49;;;;;;;14.80;8.90;;;;;;;-9.52;57.08;98691.30;105543;1259;71840;-28
2024/01/17 06:47:16;;;;;;;21.80;10.20;;;;;;;-9.72;58.17;98698.14;105350;1258;73046;-27
2024/01/17 06:49:44;;;;;;;11.90;5.30;;;;;;;-9.88;58.27;98703.60;105435;1259;72639;-27
2024/01/17 06:52:12;;;;;;;12.50;5.00;;;;;;;-9.49;58.37;98701.88;105209;1258;61253;-28
2024/01/17 06:54:40;;;;;;;9.70;4.60;;;;;;;-8.61;57.37;98704.08;105265;1262;61117;-27
2024/01/17 06:57:07;;;;;;;55.10;21.90;;;;;;;-8.34;56.82;98707.67;105571;1257;73505;-28
2024/01/17 06:59:35;;;;;;;45.50;18.00;;;;;;;-8.49;56.58;98705.98;105595;1258;74101;-27
2024/01/17 07:02:03;;;;;;;47.00;18.70;;;;;;;-8.74;56.69;98706.23;105475;1257;72660;-27
2024/01/17 07:04:31;;;;;;;39.70;14.70;;;;;;;-9.09;56.49;98706.16;105504;1260;61069;-27
2024/01/17 07:06:59;;;;;;;15.50;6.50;;;;;;;-9.44;56.89;98699.02;105465;1262;61174;-28
2024/01/17 07:09:26;;;;;;;8.60;4.40;;;;;;;-9.44;57.72;98708.73;105587;1257;71761;-28
2024/01/17 07:11:54;;;;;;;10.20;4.90;;;;;;;-8.63;56.41;98707.45;105178;1260;73148;-28
2024/01/17 07:14:22;;;;;;;18.80;7.90;;;;;;;-8.25;54.66;98701.00;105510;1259;72612;-28
2024/01/17 07:16:49;;;;;;;11.20;6.20;;;;;;;-8.17;54.82;98697.73;105542;1260;61158;-28
2024/01/17 07:19:17;;;;;;;15.50;7.40;;;;;;;-8.22;55.61;98694.41;105514;1257;61097;-28
2024/01/17 07:21:45;;;;;;;11.00;7.10;;;;;;;-8.50;54.89;98697.74;105545;1260;71709;-27
2024/01/17 07:24:13;;;;;;;17.30;8.10;;;;;;;-8.67;56.68;98695.56;105568;1263;73595;-28
2024/01/17 07:26:40;;;;;;;9.90;6.20;;;;;;;-8.76;56.80;98697.48;105264;1258;71484;-27
2024/01/17 07:29:08;;;;;;;12.10;5.50;;;;;;;-8.89;57.35;98700.46;105440;1257;61066;-27
2024/01/17 07:31:36;;;;;;;5.70;4.00;;;;;;;-9.04;58.72;98704.27;105058;1263;61827;-27
2024/01/17 07:34:03;;;;;;;10.00;6.10;;;;;;;-8.42;58.90;98701.68;105225;1258;71758;-28
2024/01/17 07:36:31;;;;;;;6.80;4.60;;;;;;;-7.46;56.61;98701.07;105244;1260;73101;-28
2024/01/17 07:38:59;;;;;;;11.30;7.20;;;;;;;-7.22;55.98;98703.25;105384;1260;72678;-28
2024/01/17 07:47:40;;;;;;;11.40;6.40;;;;;;;-7.34;56.26;98713.70;102679;1295;599391;-28
2024/01/17 07:50:11;;;;;;;21.50;9.90;;;;;;;-7.37;56.62;98715.61;104848;1267;61081;-28
2024/01/17 07:52:40;;;;;;;12.70;7.80;;;;;;;-7.43;56.53;98713.33;104758;1267;61161;-28
2024/01/17 07:55:08;;;;;;;19.80;10.10;;;;;;;-7.47;57.42;98717.08;104874;1267;73032;-27
2024/01/17 07:57:36;;;;;;;21.00;11.00;;;;;;;-7.30;57.79;98719.90;104836;1271;73071;-28
2024/01/17 08:00:08;;;;;;;20.30;11.80;;;;;;;-7.12;57.69;98723.36;104488;1272;71414;-28
2024/01/17 08:02:41;;;;;;;23.00;11.50;;;;;;;-7.03;58.08;98728.45;104713;1269;61191;-28
2024/01/17 08:05:11;;;;;;;19.70;10.50;;;;;;;-7.13;58.30;98731.83;105174;1260;61045;-28
2024/01/17 08:07:39;;;;;;;9.70;6.30;;;;;;;-7.24;58.72;98733.66;105130;1266;71688;-27
2024/01/17 08:10:07;;;;;;;31.70;18.30;;;;;;;-7.25;59.23;98731.81;105279;1260;74414;-28
2024/01/17 08:12:36;;;;;;;49.70;22.70;;;;;;;-7.13;59.11;98733.48;105229;1266;75087;-28
2024/01/17 08:15:05;;;;;;;17.00;10.50;;;;;;;-6.90;59.07;98734.33;105092;1266;61212;-28
2024/01/17 08:17:32;;;;;;;32.90;14.60;;;;;;;-6.74;58.69;98739.31;105249;1266;61148;-29
2024/01/17 08:20:00;;;;;;;12.80;8.50;;;;;;;-6.61;58.53;98739.28;105204;1261;75039;-28
2024/01/17 08:22:28;;;;;;;27.30;11.80;;;;;;;-6.62;58.57;98737.43;105185;1265;76757;-28
2024/01/17 08:24:56;;;;;;;27.70;13.80;;;;;;;-6.67;58.97;98741.93;105130;1261;74725;-29
2024/01/17 08:27:23;;;;;;;23.80;11.60;;;;;;;-6.59;59.77;98743.64;105065;1268;61245;-28
2024/01/17 08:29:51;;;;;;;20.70;11.80;;;;;;;-6.42;59.94;98744.89;105203;1263;61071;-28
2024/01/17 08:32:19;;;;;;;19.50;10.90;;;;;;;-6.28;60.10;98742.27;105202;1267;71833;-28
2024/01/17 08:34:47;;;;;;;23.40;11.70;;;;;;;-6.12;59.97;98739.61;105085;1267;76514;-29
2024/01/17 08:37:15;;;;;;;16.30;8.40;;;;;;;-5.93;59.65;98737.72;104998;1264;74936;-28
2024/01/17 08:39:43;;;;;;;17.80;9.60;;;;;;;-5.67;59.97;98740.40;104998;1264;62122;-28
2024/01/17 08:42:11;;;;;;;20.40;11.00;;;;;;;-5.36;59.03;98740.27;105219;1264;62015;-28
2024/01/17 08:44:45;;;;;;;16.90;8.00;;;;;;;-5.03;58.43;98737.52;105281;1263;75141;-28
2024/01/17 08:47:13;;;;;;;16.30;8.00;;;;;;;-4.78;58.17;98742.02;105045;1264;75267;-28
2024/01/17 08:49:41;;;;;;;17.20;10.10;;;;;;;-4.57;57.73;98738.14;105143;1261;71687;-26
2024/01/17 08:52:09;;;;;;;24.30;11.90;;;;;;;-4.32;57.15;98734.11;105203;1264;62391;-27
2024/01/17 08:54:36;;;;;;;26.30;11.30;;;;;;;-4.02;56.76;98734.19;105213;1267;61228;-26
2024/01/17 08:57:04;;;;;;;19.80;11.80;;;;;;;-3.64;56.16;98729.77;105148;1264;73864;-26
2024/01/17 08:59:33;;;;;;;25.50;13.20;;;;;;;-3.33;55.53;98726.13;105234;1267;75608;-26
2024/01/17 09:02:02;;;;;;;22.30;11.60;;;;;;;-3.03;54.95;98730.01;105502;1261;73606;-26
2024/01/17 09:04:34;;;;;;;25.40;14.60;;;;;;;-2.85;54.57;98729.63;105514;1263;61115;-26
2024/01/17 09:07:02;;;;;;;18.20;10.10;;;;;;;-2.67;54.18;98728.20;105276;1257;61231;-27
2024/01/17 09:09:30;;;;;;;19.10;10.00;;;;;;;-2.52;53.83;98728.55;105504;1261;75321;-27
2024/01/17 09:19:39;;;;;;;20.50;10.80;;;;;;;-1.67;52.59;98703.69;102677;1292;599364;-27
2024/01/17 09:22:07;;;;;;;26.90;14.20;;;;;;;-1.48;52.57;98695.84;104855;1267;61398;-28
2024/01/17 09:32:17;;;;;;;17.20;9.40;;;;;;;-0.62;50.72;98681.72;102536;1294;600400;-25
2024/01/17 09:34:48;;;;;;;19.10;10.30;;;;;;;-0.44;50.55;98679.10;104839;1266;61148;-25
2024/01/17 09:37:16;;;;;;;12.60;7.90;;;;;;;-0.31;50.24;98675.64;104819;1268;61968;-28
2024/01/17 09:39:44;;;;;;;15.40;8.30;;;;;;;-0.16;49.69;98668.89;104858;1268;70965;-28
2024/01/17 09:42:13;;;;;;;17.20;8.10;;;;;;;-0.03;49.22;98665.58;104846;1266;76535;-28
2024/01/17 09:44:41;;;;;;;20.20;10.80;;;;;;;-0.02;49.14;98663.35;104753;1266;176416;-28
2024/01/17 09:47:11;;;;;;;16.40;8.90;;;;;;;0.07;49.41;98658.67;104862;1263;61019;-28
2024/01/17 09:49:39;;;;;;;15.50;7.70;;;;;;;0.06;48.90;98651.70;104917;1263;61039;-28
2024/01/17 09:52:07;;;;;;;14.40;8.00;;;;;;;0.13;48.87;98650.21;105084;1268;73731;-28
2024/01/17 09:54:37;;;;;;;13.50;7.80;;;;;;;0.19;48.49;98644.98;104810;1270;74387;-28
2024/01/17 09:57:07;;;;;;;12.20;7.00;;;;;;;0.35;48.16;98642.20;104887;1270;74958;-28
2024/01/17 09:59:39;;;;;;;12.70;7.70;;;;;;;0.37;47.56;98636.67;104885;1270;62549;-28
2024/01/17 10:02:06;;;;;;;17.50;8.80;;;;;;;0.37;47.92;98631.36;104892;1270;61181;-28
2024/01/17 10:04:35;;;;;;;11.40;7.00;;;;;;;0.32;48.03;98629.39;105067;1262;74923;-28
2024/01/17 10:07:03;;;;;;;9.30;4.80;;;;;;;0.07;48.01;98616.88;105153;1268;74281;-28
2024/01/17 10:09:30;;;;;;;12.40;6.50;;;;;;;-0.11;48.17;98611.15;105083;1265;73552;-28
2024/01/17 10:11:59;;;;;;;20.70;9.70;;;;;;;0.08;48.30;98606.52;105101;1259;61107;-28
2024/01/17 10:14:27;;;;;;;16.20;8.70;;;;;;;0.39;47.83;98608.57;105331;1259;61120;-28
2024/01/17 10:16:55;;;;;;;15.10;6.60;;;;;;;0.58;47.23;98610.55;105254;1265;75100;-28
2024/01/17 10:19:24;;;;;;;10.60;5.80;;;;;;;0.66;46.53;98603.73;105120;1259;73837;-28
2024/01/17 10:21:52;;;;;;;13.90;7.30;;;;;;;0.61;46.41;98608.06;105266;1262;74665;-28
2024/01/17 10:24:20;;;;;;;14.10;6.90;;;;;;;0.86;46.37;98604.84;105184;1260;61171;-28
2024/01/17 10:26:51;;;;;;;8.50;5.40;;;;;;;0.89;45.83;98607.41;105213;1265;61162;-28
2024/01/17 10:29:19;;;;;;;12.30;6.60;;;;;;;0.96;45.58;98605.34;105111;1261;72065;-28
2024/01/17 10:31:47;;;;;;;11.40;5.30;;;;;;;1.19;45.11;98604.03;105099;1263;75131;-28
2024/01/17 10:34:14;;;;;;;7.90;4.80;;;;;;;1.26;44.38;98596.69;105194;1263;74541;-26
2024/01/17 10:36:44;;;;;;;6.60;4.00;;;;;;;1.13;44.31;98589.31;105274;1263;61041;-27
2024/01/17 10:39:11;;;;;;;8.30;4.20;;;;;;;0.98;44.83;98587.79;105220;1267;61094;-27
2024/01/17 10:41:51;;;;;;;11.50;5.60;;;;;;;0.79;45.21;98589.77;105187;1267;72212;-27
2024/01/17 10:44:19;;;;;;;9.10;5.90;;;;;;;0.53;45.61;98586.89;105040;1267;76701;-27
2024/01/17 10:46:48;;;;;;;12.30;4.80;;;;;;;0.32;46.10;98592.98;105101;1261;73347;-27
2024/01/17 10:49:15;;;;;;;9.60;4.90;;;;;;;0.11;46.01;98596.48;105127;1268;61241;-27
2024/01/17 10:52:07;;;;;;;13.20;4.20;;;;;;;-0.23;46.66;98596.83;105162;1265;61210;-28
2024/01/17 10:54:48;;;;;;;8.70;5.20;;;;;;;-0.46;47.09;98595.61;105017;1261;74167;-28
2024/01/17 10:57:18;;;;;;;9.40;4.70;;;;;;;-0.48;47.53;98597.60;104988;1270;74361;-28
2024/01/17 10:59:47;;;;;;;9.40;5.20;;;;;;;-0.41;47.16;98593.19;105205;1263;75739;-27
2024/01/17 11:02:18;;;;;;;9.40;4.90;;;;;;;-0.43;47.11;98585.77;105018;1262;61167;-28
2024/01/17 11:04:48;;;;;;;11.10;5.20;;;;;;;-0.34;47.14;98579.94;105033;1262;61158;-29
2024/01/17 11:07:16;;;;;;;9.70;5.40;;;;;;;-0.41;46.90;98572.91;104952;1262;72656;-28
2024/01/17 11:09:45;;;;;;;6.90;4.20;;;;;;;-0.48;46.80;98557.31;105046;1260;74326;-28
2024/01/17 11:12:14;;;;;;;11.10;4.10;;;;;;;-0.41;46.63;98561.96;105086;1260;71582;-28
2024/01/17 11:14:42;;;;;;;8.70;4.40;;;;;;;-0.38;46.53;98555.20;104812;1263;61172;-27
2024/01/17 11:17:10;;;;;;;5.60;3.80;;;;;;;-0.43;46.62;98550.28;104983;1265;61206;-28
2024/01/17 11:19:46;;;;;;;7.80;4.60;;;;;;;-0.45;46.83;98539.29;104995;1263;75319;-28
2024/01/17 11:22:16;;;;;;;9.10;5.40;;;;;;;-0.35;46.70;98536.66;104829;1260;74415;-27
2024/01/17 11:24:51;;;;;;;7.40;4.20;;;;;;;-0.18;46.48;98533.98;105127;1263;71882;-28
2024/01/17 11:27:38;;;;;;;9.30;4.30;;;;;;;0.00;46.07;98533.52;105221;1260;61123;-27
2024/01/17 11:30:28;;;;;;;6.70;3.40;;;;;;;-0.02;45.90;98528.34;105208;1261;61167;-28
2024/01/17 11:33:10;;;;;;;8.00;4.90;;;;;;;0.08;46.39;98523.77;105014;1268;72085;-28
2024/01/17 11:35:49;;;;;;;5.70;3.90;;;;;;;0.24;45.88;98521.34;105397;1259;74664;-28
2024/01/17 11:38:23;;;;;;;6.90;4.40;;;;;;;0.25;46.10;98527.23;105468;1256;71890;-28
2024/01/17 11:40:58;;;;;;;15.60;4.80;;;;;;;0.22;46.18;98517.98;105312;1256;61064;-28
2024/01/17 11:43:34;;;;;;;9.40;5.60;;;;;;;0.06;47.01;98520.11;105199;1258;61913;-27
2024/01/17 11:46:04;;;;;;;4.90;3.60;;;;;;;-0.05;47.25;98515.33;105218;1256;74927;-27
2024/01/17 11:48:34;;;;;;;9.90;4.40;;;;;;;-0.14;47.42;98508.58;105118;1256;76075;-28
2024/01/17 11:51:16;;;;;;;6.30;3.80;;;;;;;-0.06;47.42;98504.11;105370;1257;72532;-28
2024/01/17 11:53:50;;;;;;;6.80;4.10;;;;;;;-0.33;47.77;98502.44;105341;1263;61238;-27
2024/01/17 11:56:22;;;;;;;10.90;4.10;;;;;;;-0.51;48.70;98499.14;105306;1265;61159;-28
2024/01/17 11:58:51;;;;;;;9.10;4.10;;;;;;;-0.53;49.20;98500.25;105262;1257;73415;-27
2024/01/17 12:01:22;;;;;;;8.20;4.40;;;;;;;-0.47;49.52;98502.02;105281;1256;75887;-27
2024/01/17 12:03:50;;;;;;;7.80;4.90;;;;;;;-0.51;49.75;98504.11;105427;1258;75069;-27
2024/01/17 12:06:21;;;;;;;8.60;5.60;;;;;;;-0.54;50.13;98501.31;105178;1256;61114;-27
2024/01/17 12:08:52;;;;;;;10.60;4.80;;;;;;;-0.64;50.43;98503.14;105228;1260;61054;-27
2024/01/17 12:11:21;;;;;;;10.20;5.40;;;;;;;-0.63;50.14;98499.14;105199;1256;73105;-27
2024/01/17 12:13:53;;;;;;;7.20;4.70;;;;;;;-0.59;50.34;98499.65;105343;1256;73846;-27
2024/01/17 12:16:23;;;;;;;7.60;4.80;;;;;;;-0.64;50.61;98501.41;105134;1263;73456;-27
2024/01/17 12:18:58;;;;;;;8.10;4.20;;;;;;;-0.65;50.82;98500.92;105139;1256;61161;-27
2024/01/17 12:21:26;;;;;;;11.00;6.10;;;;;;;-0.79;51.55;98499.69;105040;1256;61113;-27
2024/01/17 12:23:55;;;;;;;8.60;5.50;;;;;;;-1.11;52.94;98491.66;105450;1257;74266;-27
2024/01/17 12:26:24;;;;;;;9.30;5.30;;;;;;;-1.29;53.81;98488.01;105293;1265;74501;-27
2024/01/17 12:29:05;;;;;;;8.00;5.10;;;;;;;-1.51;55.14;98488.90;105564;1258;72555;-27
2024/01/17 12:31:33;;;;;;;12.10;5.50;;;;;;;-1.55;55.11;98492.12;105252;1256;61135;-27
2024/01/17 12:34:01;;;;;;;9.10;4.30;;;;;;;-1.78;56.45;98488.27;105566;1262;61685;-27
2024/01/17 12:36:30;;;;;;;6.50;4.60;;;;;;;-1.86;56.92;98483.69;105463;1262;72062;-28
2024/01/17 12:39:02;;;;;;;10.00;6.30;;;;;;;-1.88;56.88;98481.52;105591;1261;72951;-27
2024/01/17 12:41:32;;;;;;;9.90;5.70;;;;;;;-2.05;57.64;98472.30;105317;1264;74163;-27
2024/01/17 12:44:00;;;;;;;6.10;4.10;;;;;;;-2.20;58.43;98475.08;105361;1256;61158;-27
2024/01/17 12:46:28;;;;;;;9.70;5.30;;;;;;;-2.28;58.87;98473.37;105558;1256;61212;-27
2024/01/17 12:48:56;;;;;;;9.60;5.80;;;;;;;-2.41;59.43;98469.11;105561;1256;71485;-28
2024/01/17 12:51:25;;;;;;;8.30;4.90;;;;;;;-2.36;59.69;98473.67;105371;1257;73101;-27
2024/01/17 12:53:53;;;;;;;10.90;6.30;;;;;;;-2.48;59.98;98468.85;105199;1256;73426;-27
2024/01/17 12:56:21;;;;;;;8.70;5.20;;;;;;;-2.64;60.60;98468.40;105117;1261;61149;-27
2024/01/17 12:58:53;;;;;;;9.60;6.30;;;;;;;-2.64;60.45;98469.74;105117;1256;61878;-27
2024/01/17 13:01:30;;;;;;;9.40;6.90;;;;;;;-2.65;60.63;98464.19;105082;1265;73427;-27
2024/01/17 13:04:03;;;;;;;11.50;6.60;;;;;;;-2.75;60.82;98463.38;105093;1261;74134;-27
2024/01/17 13:06:31;;;;;;;7.00;5.00;;;;;;;-2.83;61.25;98462.63;105101;1256;72689;-27
2024/01/17 13:09:13;;;;;;;16.20;7.90;;;;;;;-2.95;61.87;98460.70;105065;1263;61145;-27
2024/01/17 13:11:46;;;;;;;12.10;6.00;;;;;;;-3.12;62.74;98457.02;105129;1256;61055;-27
2024/01/17 13:14:18;;;;;;;7.10;5.00;;;;;;;-2.76;62.54;98455.40;105197;1256;70964;-27
2024/01/17 13:16:46;;;;;;;9.70;6.60;;;;;;;-2.04;60.58;98456.10;105296;1263;73927;-27
2024/01/17 13:19:14;;;;;;;12.30;6.90;;;;;;;-1.77;59.30;98450.80;105577;1256;73748;-27
2024/01/17 13:21:49;;;;;;;9.60;5.80;;;;;;;-1.89;59.56;98447.86;105612;1262;61190;-27
2024/01/17 13:24:17;;;;;;;11.60;5.40;;;;;;;-2.12;59.99;98444.68;105202;1256;61072;-28
2024/01/17 13:26:45;;;;;;;10.60;5.20;;;;;;;-2.31;60.70;98438.62;105275;1258;73758;-27
2024/01/17 13:29:13;;;;;;;11.00;6.90;;;;;;;-2.54;61.27;98435.07;105324;1262;74489;-27
2024/01/17 13:31:41;;;;;;;19.40;7.50;;;;;;;-2.74;62.09;98433.60;105405;1260;71412;-27
2024/01/17 13:34:09;;;;;;;11.90;6.40;;;;;;;-3.02;62.92;98439.00;105391;1257;62325;-27
2024/01/17 13:36:37;;;;;;;10.20;6.00;;;;;;;-3.12;63.36;98444.11;105523;1256;61130;-27
2024/01/17 13:39:09;;;;;;;10.30;6.20;;;;;;;-3.31;64.16;98442.40;105228;1260;73642;-27
2024/01/17 13:41:37;;;;;;;8.70;5.50;;;;;;;-3.47;64.90;98444.64;105193;1257;73920;-27
2024/01/17 13:44:05;;;;;;;15.10;6.40;;;;;;;-3.56;65.72;98447.14;105521;1259;72512;-27
2024/01/17 13:46:35;;;;;;;8.70;5.60;;;;;;;-3.07;64.89;98445.28;105541;1257;61244;-27
2024/01/17 13:49:05;;;;;;;8.90;5.60;;;;;;;-2.83;63.96;98442.42;105297;1256;61138;-27
2024/01/17 13:51:36;;;;;;;8.90;5.30;;;;;;;-3.01;64.28;98445.44;105440;1256;72871;-28
2024/01/17 13:54:14;;;;;;;11.70;5.60;;;;;;;-3.14;64.24;98449.80;105129;1256;76560;-27
2024/01/17 13:56:43;;;;;;;8.80;5.50;;;;;;;-3.57;64.72;98443.43;105331;1253;71638;-27
2024/01/17 13:59:11;;;;;;;10.00;5.80;;;;;;;-4.07;66.34;98434.35;105741;1258;61195;-27
2024/01/17 14:01:39;;;;;;;9.80;5.10;;;;;;;-4.34;67.82;98431.30;105672;1259;61154;-27
2024/01/17 14:04:06;;;;;;;15.90;8.20;;;;;;;-4.58;69.22;98436.25;105516;1258;75770;-27
2024/01/17 14:06:35;;;;;;;11.10;6.90;;;;;;;-4.67;70.32;98428.20;105482;1259;74556;-27
2024/01/17 14:09:06;;;;;;;8.60;5.40;;;;;;;-4.14;68.87;98434.08;105283;1257;73134;-27
2024/01/17 14:11:40;;;;;;;14.00;8.30;;;;;;;-4.00;68.41;98436.37;105507;1253;61135;-27
2024/01/17 14:14:11;;;;;;;19.20;9.40;;;;;;;-4.12;68.27;98444.52;105538;1253;61644;-27
2024/01/17 14:16:40;;;;;;;13.20;7.50;;;;;;;-4.41;69.39;98436.59;105503;1257;74921;-27
2024/01/17 14:19:09;;;;;;;14.90;9.10;;;;;;;-4.59;70.52;98442.87;105368;1253;73935;-27
2024/01/17 14:21:37;;;;;;;13.70;8.00;;;;;;;-4.84;71.54;98426.98;105558;1258;74948;-27
2024/01/17 14:24:05;;;;;;;10.50;7.50;;;;;;;-4.65;72.12;98438.80;105469;1258;64003;-27
2024/01/17 14:26:34;;;;;;;15.30;8.80;;;;;;;-4.05;70.05;98435.49;105614;1258;61716;-27
2024/01/17 14:29:02;;;;;;;19.70;10.20;;;;;;;-4.03;69.45;98426.27;105505;1258;72591;-27
2024/01/17 14:31:30;;;;;;;16.10;8.70;;;;;;;-4.21;69.98;98424.46;105501;1259;74256;-27
2024/01/17 14:33:58;;;;;;;15.40;6.30;;;;;;;-4.48;70.62;98430.52;105388;1254;71618;-27
2024/01/17 14:36:26;;;;;;;21.90;11.50;;;;;;;-4.67;71.58;98427.19;105731;1259;61161;-27
2024/01/17 14:38:54;;;;;;;18.50;9.50;;;;;;;-4.86;72.15;98424.67;105792;1253;61155;-27
2024/01/17 14:41:23;;;;;;;13.10;8.20;;;;;;;-4.58;72.25;98417.59;105767;1259;72821;-27
2024/01/17 14:43:52;;;;;;;13.90;8.40;;;;;;;-4.18;70.83;98416.21;105726;1253;74183;-27
2024/01/17 14:46:20;;;;;;;21.40;11.40;;;;;;;-4.13;70.12;98411.48;105817;1254;74205;-27
2024/01/17 14:48:48;;;;;;;17.10;10.20;;;;;;;-4.36;70.29;98398.80;105788;1255;61183;-27
2024/01/17 14:51:16;;;;;;;17.10;7.50;;;;;;;-4.64;71.19;98392.21;105761;1253;61018;-27
2024/01/17 14:53:44;;;;;;;13.50;7.80;;;;;;;-4.93;72.02;98385.77;105746;1253;72577;-27
2024/01/17 14:56:12;;;;;;;8.10;5.80;;;;;;;-4.73;71.80;98391.61;105688;1253;73694;-27
2024/01/17 14:58:40;;;;;;;13.80;6.40;;;;;;;-4.10;69.93;98387.49;105652;1257;70899;-27
2024/01/17 15:01:08;;;;;;;6.70;4.20;;;;;;;-3.97;68.86;98384.00;105570;1256;61236;-27
2024/01/17 15:03:36;;;;;;;10.70;4.90;;;;;;;-4.01;68.57;98386.20;105696;1253;61146;-27
2024/01/17 15:06:05;;;;;;;18.10;6.70;;;;;;;-4.27;68.68;98376.84;105722;1253;74794;-27
2024/01/17 15:08:34;;;;;;;11.10;7.10;;;;;;;-4.64;70.35;98373.73;105726;1253;75078;-27
2024/01/17 15:11:02;;;;;;;9.70;6.10;;;;;;;-4.93;71.38;98381.71;105789;1258;72991;-27
2024/01/17 15:13:30;;;;;;;13.30;7.00;;;;;;;-5.11;72.40;98372.39;105841;1257;61525;-27
2024/01/17 15:15:57;;;;;;;10.10;4.80;;;;;;;-4.65;72.04;98375.64;105636;1253;61133;-27
2024/01/17 15:18:25;;;;;;;11.10;5.30;;;;;;;-4.39;70.90;98362.80;105747;1254;73590;-27
2024/01/17 15:20:53;;;;;;;8.80;6.20;;;;;;;-4.32;70.81;98359.04;105787;1267;73953;-27
2024/01/17 15:23:20;;;;;;;21.00;11.00;;;;;;;-4.56;71.91;98350.47;105744;1253;72720;-27
2024/01/17 15:25:48;;;;;;;21.30;6.70;;;;;;;-4.83;73.43;98348.39;105718;1253;61669;-27
2024/01/17 15:28:16;;;;;;;9.60;6.80;;;;;;;-4.98;74.20;98340.71;105465;1253;61226;-27
2024/01/17 15:30:44;;;;;;;16.60;9.00;;;;;;;-4.81;74.95;98329.85;105422;1253;74203;-27